sensor_id;sensor_type;location;lat;lon;timestamp;temperature;humidity
3860;DHT22;1945;52.036;8.614;2022-07-06T00:02:09;16.20;99.90
3860;DHT22;1945;52.036;8.614;2022-07-06T00:04:35;16.20;1.00
3860;DHT22;1945;52.036;8.614;2022-07-06T00:07:02;16.10;1.00
3860;DHT22;1945;52.036;8.614;2022-07-06T00:09:29;16.00;1.00
3860;DHT22;1945;52.036;8.614;2022-07-06T00:11:56;16.20;1.00
3860;DHT22;1945;52.036;8.614;2022-07-06T00:14:24;16.00;1.00
3860;DHT22;1945;52.036;8.614;2022-07-06T00:16:51;16.00;1.00
3860;DHT22;1945;52.036;8.614;2022-07-06T00:19:18;16.00;1.00
3860;DHT22;1945;52.036;8.614;2022-07-06T00:21:44;15.90;1.00
3860;DHT22;1945;52.036;8.614;2022-07-06T00:24:11;15.80;1.00
3860;DHT22;1945;52.036;8.614;2022-07-06T00:26:38;15.70;1.00
3860;DHT22;1945;52.036;8.614;2022-07-06T00:29:04;15.60;1.00
3860;DHT22;1945;52.036;8.614;2022-07-06T00:31:32;15.60;1.00
3860;DHT22;1945;52.036;8.614;2022-07-06T00:33:59;15.50;1.00
3860;DHT22;1945;52.036;8.614;2022-07-06T00:36:26;15.40;1.00
3860;DHT22;1945;52.036;8.614;2022-07-06T00:38:53;15.40;1.00
3860;DHT22;1945;52.036;8.614;2022-07-06T00:41:19;15.30;1.00
3860;DHT22;1945;52.036;8.614;2022-07-06T00:43:48;15.30;1.00
3860;DHT22;1945;52.036;8.614;2022-07-06T00:46:14;15.20;1.00
3860;DHT22;1945;52.036;8.614;2022-07-06T00:48:43;15.20;1.00
3860;DHT22;1945;52.036;8.614;2022-07-06T00:51:10;15.30;1.00
3860;DHT22;1945;52.036;8.614;2022-07-06T00:53:38;15.30;1.00
3860;DHT22;1945;52.036;8.614;2022-07-06T00:56:06;15.30;1.00
3860;DHT22;1945;52.036;8.614;2022-07-06T00:58:33;15.20;1.00
3860;DHT22;1945;52.036;8.614;2022-07-06T01:01:00;15.30;1.00
3860;DHT22;1945;52.036;8.614;2022-07-06T01:03:27;15.20;1.00
3860;DHT22;1945;52.036;8.614;2022-07-06T01:05:55;15.20;1.00
3860;DHT22;1945;52.036;8.614;2022-07-06T01:08:22;15.20;1.00
3860;DHT22;1945;52.036;8.614;2022-07-06T01:10:49;15.20;1.00
3860;DHT22;1945;52.036;8.614;2022-07-06T01:13:15;15.20;1.00
3860;DHT22;1945;52.036;8.614;2022-07-06T01:15:42;15.20;1.00
3860;DHT22;1945;52.036;8.614;2022-07-06T01:18:09;15.20;1.00
3860;DHT22;1945;52.036;8.614;2022-07-06T01:20:38;15.10;1.00
3860;DHT22;1945;52.036;8.614;2022-07-06T01:23:05;15.00;1.00
3860;DHT22;1945;52.036;8.614;2022-07-06T01:25:32;15.00;1.00
3860;DHT22;1945;52.036;8.614;2022-07-06T01:27:58;14.90;1.00
3860;DHT22;1945;52.036;8.614;2022-07-06T01:30:25;14.90;1.00
3860;DHT22;1945;52.036;8.614;2022-07-06T01:32:52;14.90;1.00
3860;DHT22;1945;52.036;8.614;2022-07-06T01:35:19;14.90;1.00
3860;DHT22;1945;52.036;8.614;2022-07-06T01:37:47;14.90;1.00
3860;DHT22;1945;52.036;8.614;2022-07-06T01:40:14;14.80;1.00
3860;DHT22;1945;52.036;8.614;2022-07-06T01:42:41;14.80;1.00
3860;DHT22;1945;52.036;8.614;2022-07-06T01:45:09;14.80;1.00
3860;DHT22;1945;52.036;8.614;2022-07-06T01:47:36;14.70;1.00
3860;DHT22;1945;52.036;8.614;2022-07-06T01:50:05;14.80;1.00
3860;DHT22;1945;52.036;8.614;2022-07-06T01:52:32;14.80;1.00
3860;DHT22;1945;52.036;8.614;2022-07-06T01:55:00;14.80;1.00
3860;DHT22;1945;52.036;8.614;2022-07-06T01:57:27;14.80;1.00
3860;DHT22;1945;52.036;8.614;2022-07-06T01:59:54;14.90;1.00
3860;DHT22;1945;52.036;8.614;2022-07-06T02:02:20;14.80;1.00
3860;DHT22;1945;52.036;8.614;2022-07-06T02:04:47;14.90;1.00
3860;DHT22;1945;52.036;8.614;2022-07-06T02:07:14;14.90;1.00
3860;DHT22;1945;52.036;8.614;2022-07-06T02:09:40;14.80;1.00
3860;DHT22;1945;52.036;8.614;2022-07-06T02:12:08;14.90;1.00
3860;DHT22;1945;52.036;8.614;2022-07-06T02:14:35;14.90;1.00
3860;DHT22;1945;52.036;8.614;2022-07-06T02:17:02;14.90;1.00
3860;DHT22;1945;52.036;8.614;2022-07-06T02:19:29;14.90;1.00
3860;DHT22;1945;52.036;8.614;2022-07-06T02:21:56;14.90;1.00
3860;DHT22;1945;52.036;8.614;2022-07-06T02:24:22;14.90;1.00
3860;DHT22;1945;52.036;8.614;2022-07-06T02:26:49;14.90;1.00
3860;DHT22;1945;52.036;8.614;2022-07-06T02:29:17;14.80;1.00
3860;DHT22;1945;52.036;8.614;2022-07-06T02:31:45;14.90;1.00
3860;DHT22;1945;52.036;8.614;2022-07-06T02:34:11;14.80;1.00
3860;DHT22;1945;52.036;8.614;2022-07-06T02:36:38;14.90;1.00
3860;DHT22;1945;52.036;8.614;2022-07-06T02:39:05;14.90;1.00
3860;DHT22;1945;52.036;8.614;2022-07-06T02:41:31;14.90;1.00
3860;DHT22;1945;52.036;8.614;2022-07-06T02:43:58;14.90;1.00
3860;DHT22;1945;52.036;8.614;2022-07-06T02:46:26;15.00;1.00
3860;DHT22;1945;52.036;8.614;2022-07-06T02:48:53;15.00;1.00
3860;DHT22;1945;52.036;8.614;2022-07-06T02:51:19;15.00;1.00
3860;DHT22;1945;52.036;8.614;2022-07-06T02:53:46;14.90;1.00
3860;DHT22;1945;52.036;8.614;2022-07-06T02:56:13;14.90;1.00
3860;DHT22;1945;52.036;8.614;2022-07-06T02:58:39;14.90;1.00
3860;DHT22;1945;52.036;8.614;2022-07-06T03:01:06;14.90;1.00
3860;DHT22;1945;52.036;8.614;2022-07-06T03:03:34;14.90;1.00
3860;DHT22;1945;52.036;8.614;2022-07-06T03:06:01;14.90;1.00
3860;DHT22;1945;52.036;8.614;2022-07-06T03:08:27;14.90;1.00
3860;DHT22;1945;52.036;8.614;2022-07-06T03:10:54;14.80;1.00
3860;DHT22;1945;52.036;8.614;2022-07-06T03:13:21;14.80;1.00
3860;DHT22;1945;52.036;8.614;2022-07-06T03:15:47;14.80;1.00
3860;DHT22;1945;52.036;8.614;2022-07-06T03:18:14;14.80;1.00
3860;DHT22;1945;52.036;8.614;2022-07-06T03:20:42;14.80;1.00
3860;DHT22;1945;52.036;8.614;2022-07-06T03:23:09;14.80;1.00
3860;DHT22;1945;52.036;8.614;2022-07-06T03:25:35;14.70;1.00
3860;DHT22;1945;52.036;8.614;2022-07-06T03:28:02;14.70;1.00
3860;DHT22;1945;52.036;8.614;2022-07-06T03:30:29;14.70;1.00
3860;DHT22;1945;52.036;8.614;2022-07-06T03:32:56;14.70;1.00
3860;DHT22;1945;52.036;8.614;2022-07-06T03:35:22;14.60;1.00
3860;DHT22;1945;52.036;8.614;2022-07-06T03:37:50;14.60;1.00
3860;DHT22;1945;52.036;8.614;2022-07-06T03:40:17;14.50;1.00
3860;DHT22;1945;52.036;8.614;2022-07-06T03:42:44;14.60;1.00
3860;DHT22;1945;52.036;8.614;2022-07-06T03:45:10;14.50;1.00
3860;DHT22;1945;52.036;8.614;2022-07-06T03:47:37;14.50;1.00
3860;DHT22;1945;52.036;8.614;2022-07-06T03:50:04;14.50;1.00
3860;DHT22;1945;52.036;8.614;2022-07-06T03:52:31;14.50;1.00
3860;DHT22;1945;52.036;8.614;2022-07-06T03:54:59;14.70;1.00
3860;DHT22;1945;52.036;8.614;2022-07-06T03:57:26;15.00;1.00
3860;DHT22;1945;52.036;8.614;2022-07-06T03:59:53;15.10;1.00
3860;DHT22;1945;52.036;8.614;2022-07-06T04:02:19;15.10;1.00
3860;DHT22;1945;52.036;8.614;2022-07-06T04:04:46;14.90;1.00
3860;DHT22;1945;52.036;8.614;2022-07-06T04:07:13;14.80;1.00
3860;DHT22;1945;52.036;8.614;2022-07-06T04:09:40;14.80;1.00
3860;DHT22;1945;52.036;8.614;2022-07-06T04:12:08;14.70;1.00
3860;DHT22;1945;52.036;8.614;2022-07-06T04:14:35;14.90;1.00
3860;DHT22;1945;52.036;8.614;2022-07-06T04:17:02;15.70;1.00
3860;DHT22;1945;52.036;8.614;2022-07-06T04:19:49;16.30;1.00
3860;DHT22;1945;52.036;8.614;2022-07-06T04:22:16;16.70;1.00
3860;DHT22;1945;52.036;8.614;2022-07-06T04:24:43;17.00;99.90
3860;DHT22;1945;52.036;8.614;2022-07-06T04:27:11;17.10;99.90
3860;DHT22;1945;52.036;8.614;2022-07-06T04:29:37;17.30;99.90
3860;DHT22;1945;52.036;8.614;2022-07-06T04:32:05;17.20;99.90
3860;DHT22;1945;52.036;8.614;2022-07-06T04:34:31;17.60;99.90
3860;DHT22;1945;52.036;8.614;2022-07-06T04:36:58;17.90;99.90
3860;DHT22;1945;52.036;8.614;2022-07-06T04:39:25;18.20;99.90
3860;DHT22;1945;52.036;8.614;2022-07-06T04:41:52;18.60;99.90
3860;DHT22;1945;52.036;8.614;2022-07-06T04:44:20;18.90;99.90
3860;DHT22;1945;52.036;8.614;2022-07-06T04:46:47;18.80;99.90
3860;DHT22;1945;52.036;8.614;2022-07-06T04:49:14;18.90;99.90
3860;DHT22;1945;52.036;8.614;2022-07-06T04:51:41;19.10;99.90
3860;DHT22;1945;52.036;8.614;2022-07-06T04:54:07;19.60;99.90
3860;DHT22;1945;52.036;8.614;2022-07-06T04:56:34;19.60;99.90
3860;DHT22;1945;52.036;8.614;2022-07-06T04:59:01;20.10;1.00
3860;DHT22;1945;52.036;8.614;2022-07-06T05:01:29;20.10;1.00
3860;DHT22;1945;52.036;8.614;2022-07-06T05:03:55;20.00;1.00
3860;DHT22;1945;52.036;8.614;2022-07-06T05:06:22;20.30;1.00
3860;DHT22;1945;52.036;8.614;2022-07-06T05:08:49;20.50;1.00
3860;DHT22;1945;52.036;8.614;2022-07-06T05:11:16;20.60;1.00
3860;DHT22;1945;52.036;8.614;2022-07-06T05:13:42;21.00;1.00
3860;DHT22;1945;52.036;8.614;2022-07-06T05:16:09;20.80;1.00
3860;DHT22;1945;52.036;8.614;2022-07-06T05:18:37;20.40;1.00
3860;DHT22;1945;52.036;8.614;2022-07-06T05:21:04;19.60;1.00
3860;DHT22;1945;52.036;8.614;2022-07-06T05:23:30;19.30;1.00
3860;DHT22;1945;52.036;8.614;2022-07-06T05:25:57;19.30;1.00
3860;DHT22;1945;52.036;8.614;2022-07-06T05:28:24;18.60;1.00
3860;DHT22;1945;52.036;8.614;2022-07-06T05:30:50;18.80;1.00
3860;DHT22;1945;52.036;8.614;2022-07-06T05:33:17;18.70;1.00
3860;DHT22;1945;52.036;8.614;2022-07-06T05:35:45;18.90;1.00
3860;DHT22;1945;52.036;8.614;2022-07-06T05:38:12;18.70;99.90
3860;DHT22;1945;52.036;8.614;2022-07-06T05:40:39;18.80;1.00
3860;DHT22;1945;52.036;8.614;2022-07-06T05:43:06;18.80;99.90
3860;DHT22;1945;52.036;8.614;2022-07-06T05:45:33;18.80;99.90
3860;DHT22;1945;52.036;8.614;2022-07-06T05:47:59;18.80;1.00
3860;DHT22;1945;52.036;8.614;2022-07-06T05:50:45;18.70;1.00
3860;DHT22;1945;52.036;8.614;2022-07-06T05:53:12;18.70;1.00
3860;DHT22;1945;52.036;8.614;2022-07-06T05:55:38;18.70;1.00
3860;DHT22;1945;52.036;8.614;2022-07-06T05:58:05;19.40;1.00
3860;DHT22;1945;52.036;8.614;2022-07-06T06:00:32;19.30;1.00
3860;DHT22;1945;52.036;8.614;2022-07-06T06:02:59;18.90;1.00
3860;DHT22;1945;52.036;8.614;2022-07-06T06:05:26;19.10;1.00
3860;DHT22;1945;52.036;8.614;2022-07-06T06:07:54;18.90;1.00
3860;DHT22;1945;52.036;8.614;2022-07-06T06:10:22;19.10;1.00
3860;DHT22;1945;52.036;8.614;2022-07-06T06:12:48;19.20;1.00
3860;DHT22;1945;52.036;8.614;2022-07-06T06:15:15;19.10;1.00
3860;DHT22;1945;52.036;8.614;2022-07-06T06:17:42;18.70;1.00
3860;DHT22;1945;52.036;8.614;2022-07-06T06:20:11;18.90;1.00
3860;DHT22;1945;52.036;8.614;2022-07-06T06:22:45;18.90;1.00
3860;DHT22;1945;52.036;8.614;2022-07-06T06:25:14;19.00;1.00
3860;DHT22;1945;52.036;8.614;2022-07-06T06:27:40;19.50;1.00
3860;DHT22;1945;52.036;8.614;2022-07-06T06:30:08;19.20;33.90
3860;DHT22;1945;52.036;8.614;2022-07-06T06:32:35;19.30;1.00
3860;DHT22;1945;52.036;8.614;2022-07-06T06:35:02;19.00;1.00
3860;DHT22;1945;52.036;8.614;2022-07-06T06:37:29;18.90;1.00
3860;DHT22;1945;52.036;8.614;2022-07-06T06:39:55;19.00;1.00
3860;DHT22;1945;52.036;8.614;2022-07-06T06:42:23;18.90;1.00
3860;DHT22;1945;52.036;8.614;2022-07-06T06:44:50;18.80;1.00
3860;DHT22;1945;52.036;8.614;2022-07-06T06:47:17;18.60;1.00
3860;DHT22;1945;52.036;8.614;2022-07-06T06:49:44;18.60;1.00
3860;DHT22;1945;52.036;8.614;2022-07-06T06:52:11;18.50;1.00
3860;DHT22;1945;52.036;8.614;2022-07-06T06:54:37;18.60;1.00
3860;DHT22;1945;52.036;8.614;2022-07-06T06:57:04;18.70;1.00
3860;DHT22;1945;52.036;8.614;2022-07-06T06:59:32;18.60;1.00
3860;DHT22;1945;52.036;8.614;2022-07-06T07:01:59;18.60;1.00
3860;DHT22;1945;52.036;8.614;2022-07-06T07:04:26;18.40;1.00
3860;DHT22;1945;52.036;8.614;2022-07-06T07:06:54;18.20;1.00
3860;DHT22;1945;52.036;8.614;2022-07-06T07:09:21;18.30;1.00
3860;DHT22;1945;52.036;8.614;2022-07-06T07:11:48;18.30;1.00
3860;DHT22;1945;52.036;8.614;2022-07-06T07:14:15;18.20;1.00
3860;DHT22;1945;52.036;8.614;2022-07-06T07:16:43;18.40;1.00
3860;DHT22;1945;52.036;8.614;2022-07-06T07:19:09;18.40;1.00
3860;DHT22;1945;52.036;8.614;2022-07-06T07:21:36;18.60;1.00
3860;DHT22;1945;52.036;8.614;2022-07-06T07:24:03;18.40;1.00
3860;DHT22;1945;52.036;8.614;2022-07-06T07:26:30;18.60;1.00
3860;DHT22;1945;52.036;8.614;2022-07-06T07:28:57;18.70;1.00
3860;DHT22;1945;52.036;8.614;2022-07-06T07:31:24;18.90;1.00
3860;DHT22;1945;52.036;8.614;2022-07-06T07:33:52;18.70;1.00
3860;DHT22;1945;52.036;8.614;2022-07-06T07:36:20;19.10;1.00
3860;DHT22;1945;52.036;8.614;2022-07-06T07:38:47;19.00;1.00
3860;DHT22;1945;52.036;8.614;2022-07-06T07:41:13;19.10;1.00
3860;DHT22;1945;52.036;8.614;2022-07-06T07:43:42;19.00;1.00
3860;DHT22;1945;52.036;8.614;2022-07-06T07:46:09;19.20;1.00
3860;DHT22;1945;52.036;8.614;2022-07-06T07:48:35;19.20;1.00
3860;DHT22;1945;52.036;8.614;2022-07-06T07:51:03;19.50;1.00
3860;DHT22;1945;52.036;8.614;2022-07-06T07:53:30;19.50;1.00
3860;DHT22;1945;52.036;8.614;2022-07-06T07:55:57;19.70;1.00
3860;DHT22;1945;52.036;8.614;2022-07-06T07:58:23;19.70;1.00
3860;DHT22;1945;52.036;8.614;2022-07-06T08:00:50;19.90;1.00
3860;DHT22;1945;52.036;8.614;2022-07-06T08:03:17;19.80;1.00
3860;DHT22;1945;52.036;8.614;2022-07-06T08:05:43;19.70;1.00
3860;DHT22;1945;52.036;8.614;2022-07-06T08:08:13;19.60;99.90
3860;DHT22;1945;52.036;8.614;2022-07-06T08:10:40;19.70;1.00
3860;DHT22;1945;52.036;8.614;2022-07-06T08:13:07;19.60;1.00
3860;DHT22;1945;52.036;8.614;2022-07-06T08:15:34;19.50;1.00
3860;DHT22;1945;52.036;8.614;2022-07-06T08:18:01;19.80;1.40
3860;DHT22;1945;52.036;8.614;2022-07-06T08:20:27;19.70;99.90
3860;DHT22;1945;52.036;8.614;2022-07-06T08:22:54;19.90;99.90
3860;DHT22;1945;52.036;8.614;2022-07-06T08:25:23;19.80;99.90
3860;DHT22;1945;52.036;8.614;2022-07-06T08:27:49;19.70;99.90
3860;DHT22;1945;52.036;8.614;2022-07-06T08:30:16;19.40;99.90
3860;DHT22;1945;52.036;8.614;2022-07-06T08:32:43;19.30;99.90
3860;DHT22;1945;52.036;8.614;2022-07-06T08:35:10;19.00;99.90
3860;DHT22;1945;52.036;8.614;2022-07-06T08:37:37;19.10;99.90
3860;DHT22;1945;52.036;8.614;2022-07-06T08:40:05;19.10;99.90
3860;DHT22;1945;52.036;8.614;2022-07-06T08:42:34;19.00;99.90
3860;DHT22;1945;52.036;8.614;2022-07-06T08:45:05;19.20;99.90
3860;DHT22;1945;52.036;8.614;2022-07-06T08:47:36;19.20;99.90
3860;DHT22;1945;52.036;8.614;2022-07-06T08:50:04;19.40;99.90
3860;DHT22;1945;52.036;8.614;2022-07-06T08:52:31;19.70;1.00
3860;DHT22;1945;52.036;8.614;2022-07-06T08:54:58;19.90;1.00
3860;DHT22;1945;52.036;8.614;2022-07-06T08:57:26;20.40;1.00
3860;DHT22;1945;52.036;8.614;2022-07-06T08:59:54;20.80;99.90
3860;DHT22;1945;52.036;8.614;2022-07-06T09:02:24;20.50;99.90
3860;DHT22;1945;52.036;8.614;2022-07-06T09:04:53;20.70;1.00
3860;DHT22;1945;52.036;8.614;2022-07-06T09:07:22;20.50;1.00
3860;DHT22;1945;52.036;8.614;2022-07-06T09:09:49;20.60;1.00
3860;DHT22;1945;52.036;8.614;2022-07-06T09:12:17;20.50;1.00
3860;DHT22;1945;52.036;8.614;2022-07-06T09:14:43;20.40;1.00
3860;DHT22;1945;52.036;8.614;2022-07-06T09:17:12;20.20;1.00
3860;DHT22;1945;52.036;8.614;2022-07-06T09:19:39;20.20;1.00
3860;DHT22;1945;52.036;8.614;2022-07-06T09:22:06;20.10;1.00
3860;DHT22;1945;52.036;8.614;2022-07-06T09:24:32;20.00;1.00
3860;DHT22;1945;52.036;8.614;2022-07-06T09:26:59;19.90;1.00
3860;DHT22;1945;52.036;8.614;2022-07-06T09:29:27;19.60;1.00
3860;DHT22;1945;52.036;8.614;2022-07-06T09:31:58;19.60;1.00
3860;DHT22;1945;52.036;8.614;2022-07-06T09:34:40;19.70;99.90
3860;DHT22;1945;52.036;8.614;2022-07-06T09:37:07;19.50;99.90
3860;DHT22;1945;52.036;8.614;2022-07-06T09:39:34;19.60;1.00
3860;DHT22;1945;52.036;8.614;2022-07-06T09:42:02;19.70;99.90
3860;DHT22;1945;52.036;8.614;2022-07-06T09:44:32;19.50;99.90
3860;DHT22;1945;52.036;8.614;2022-07-06T09:47:00;19.50;99.90
3860;DHT22;1945;52.036;8.614;2022-07-06T09:49:29;19.40;99.90
3860;DHT22;1945;52.036;8.614;2022-07-06T09:51:57;19.20;99.90
3860;DHT22;1945;52.036;8.614;2022-07-06T09:54:25;19.00;1.00
3860;DHT22;1945;52.036;8.614;2022-07-06T09:56:53;19.00;99.90
3860;DHT22;1945;52.036;8.614;2022-07-06T09:59:22;18.80;1.00
3860;DHT22;1945;52.036;8.614;2022-07-06T10:01:51;18.90;1.00
3860;DHT22;1945;52.036;8.614;2022-07-06T10:04:18;19.00;1.00
3860;DHT22;1945;52.036;8.614;2022-07-06T10:06:47;19.10;1.00
3860;DHT22;1945;52.036;8.614;2022-07-06T10:09:15;19.10;99.90
3860;DHT22;1945;52.036;8.614;2022-07-06T10:11:44;19.10;1.00
3860;DHT22;1945;52.036;8.614;2022-07-06T10:14:12;18.90;94.30
3860;DHT22;1945;52.036;8.614;2022-07-06T10:16:41;18.90;99.90
3860;DHT22;1945;52.036;8.614;2022-07-06T10:19:08;19.00;1.00
3860;DHT22;1945;52.036;8.614;2022-07-06T10:21:36;19.00;1.00
3860;DHT22;1945;52.036;8.614;2022-07-06T10:24:06;19.00;1.00
3860;DHT22;1945;52.036;8.614;2022-07-06T10:26:34;19.00;1.00
3860;DHT22;1945;52.036;8.614;2022-07-06T10:29:02;19.00;1.00
3860;DHT22;1945;52.036;8.614;2022-07-06T10:31:30;19.20;1.00
3860;DHT22;1945;52.036;8.614;2022-07-06T10:33:59;19.50;1.00
3860;DHT22;1945;52.036;8.614;2022-07-06T10:36:27;19.40;95.10
3860;DHT22;1945;52.036;8.614;2022-07-06T10:38:54;19.90;1.00
3860;DHT22;1945;52.036;8.614;2022-07-06T10:41:32;20.00;70.00
3860;DHT22;1945;52.036;8.614;2022-07-06T10:44:16;20.00;16.50
3860;DHT22;1945;52.036;8.614;2022-07-06T10:46:53;20.00;99.90
3860;DHT22;1945;52.036;8.614;2022-07-06T10:49:21;20.60;78.30
3860;DHT22;1945;52.036;8.614;2022-07-06T10:51:49;20.70;99.90
3860;DHT22;1945;52.036;8.614;2022-07-06T10:54:17;20.60;1.00
3860;DHT22;1945;52.036;8.614;2022-07-06T10:56:46;21.30;99.90
3860;DHT22;1945;52.036;8.614;2022-07-06T10:59:14;21.40;94.40
3860;DHT22;1945;52.036;8.614;2022-07-06T11:02:11;21.70;99.90
3860;DHT22;1945;52.036;8.614;2022-07-06T11:04:37;21.60;1.00
3860;DHT22;1945;52.036;8.614;2022-07-06T11:07:07;21.70;1.00
3860;DHT22;1945;52.036;8.614;2022-07-06T11:09:35;21.40;1.00
3860;DHT22;1945;52.036;8.614;2022-07-06T11:12:15;22.00;99.90
3860;DHT22;1945;52.036;8.614;2022-07-06T11:14:42;22.10;85.20
3860;DHT22;1945;52.036;8.614;2022-07-06T11:17:10;21.80;99.90
3860;DHT22;1945;52.036;8.614;2022-07-06T11:19:37;21.90;1.00
3860;DHT22;1945;52.036;8.614;2022-07-06T11:22:08;21.80;10.90
3860;DHT22;1945;52.036;8.614;2022-07-06T11:24:37;21.80;1.00
3860;DHT22;1945;52.036;8.614;2022-07-06T11:27:05;21.70;1.00
3860;DHT22;1945;52.036;8.614;2022-07-06T11:29:34;21.40;32.90
3860;DHT22;1945;52.036;8.614;2022-07-06T11:32:03;21.30;1.00
3860;DHT22;1945;52.036;8.614;2022-07-06T11:34:31;21.10;1.00
3860;DHT22;1945;52.036;8.614;2022-07-06T11:36:59;21.00;99.90
3860;DHT22;1945;52.036;8.614;2022-07-06T11:39:26;20.80;1.00
3860;DHT22;1945;52.036;8.614;2022-07-06T11:41:54;20.90;1.00
3860;DHT22;1945;52.036;8.614;2022-07-06T11:44:21;20.80;1.00
3860;DHT22;1945;52.036;8.614;2022-07-06T11:46:49;20.80;1.00
3860;DHT22;1945;52.036;8.614;2022-07-06T11:49:16;20.80;1.00
3860;DHT22;1945;52.036;8.614;2022-07-06T11:51:45;20.80;99.90
3860;DHT22;1945;52.036;8.614;2022-07-06T11:54:14;20.90;1.00
3860;DHT22;1945;52.036;8.614;2022-07-06T11:56:46;20.80;99.90
3860;DHT22;1945;52.036;8.614;2022-07-06T11:59:13;20.70;1.00
3860;DHT22;1945;52.036;8.614;2022-07-06T12:01:41;20.80;1.00
3860;DHT22;1945;52.036;8.614;2022-07-06T12:04:11;20.90;1.00
3860;DHT22;1945;52.036;8.614;2022-07-06T12:06:37;21.20;1.00
3860;DHT22;1945;52.036;8.614;2022-07-06T12:09:04;21.40;1.00
3860;DHT22;1945;52.036;8.614;2022-07-06T12:11:33;21.20;99.90
3860;DHT22;1945;52.036;8.614;2022-07-06T12:14:01;21.60;1.00
3860;DHT22;1945;52.036;8.614;2022-07-06T12:16:30;21.80;1.00
3860;DHT22;1945;52.036;8.614;2022-07-06T12:18:58;21.80;1.00
3860;DHT22;1945;52.036;8.614;2022-07-06T12:21:26;21.70;1.00
3860;DHT22;1945;52.036;8.614;2022-07-06T12:23:54;21.80;1.00
3860;DHT22;1945;52.036;8.614;2022-07-06T12:26:23;22.00;99.90
3860;DHT22;1945;52.036;8.614;2022-07-06T12:29:01;21.90;99.90
3860;DHT22;1945;52.036;8.614;2022-07-06T12:31:33;21.80;99.90
3860;DHT22;1945;52.036;8.614;2022-07-06T12:34:00;21.90;99.90
3860;DHT22;1945;52.036;8.614;2022-07-06T12:36:28;21.80;99.90
3860;DHT22;1945;52.036;8.614;2022-07-06T12:38:55;22.20;99.90
3860;DHT22;1945;52.036;8.614;2022-07-06T12:41:33;22.60;1.00
3860;DHT22;1945;52.036;8.614;2022-07-06T12:44:03;22.50;13.20
3860;DHT22;1945;52.036;8.614;2022-07-06T12:46:31;21.80;1.00
3860;DHT22;1945;52.036;8.614;2022-07-06T12:48:59;21.70;1.00
3860;DHT22;1945;52.036;8.614;2022-07-06T12:51:28;22.00;1.00
3860;DHT22;1945;52.036;8.614;2022-07-06T12:54:12;22.00;1.00
3860;DHT22;1945;52.036;8.614;2022-07-06T12:56:58;22.20;1.00
3860;DHT22;1945;52.036;8.614;2022-07-06T12:59:25;22.70;1.00
3860;DHT22;1945;52.036;8.614;2022-07-06T13:01:52;22.70;99.90
3860;DHT22;1945;52.036;8.614;2022-07-06T13:04:22;22.70;99.90
3860;DHT22;1945;52.036;8.614;2022-07-06T13:06:50;22.60;99.90
3860;DHT22;1945;52.036;8.614;2022-07-06T13:09:17;22.40;99.90
3860;DHT22;1945;52.036;8.614;2022-07-06T13:11:44;22.30;99.90
3860;DHT22;1945;52.036;8.614;2022-07-06T13:14:12;22.90;86.00
3860;DHT22;1945;52.036;8.614;2022-07-06T13:16:38;22.80;99.90
3860;DHT22;1945;52.036;8.614;2022-07-06T13:19:05;23.00;44.30
3860;DHT22;1945;52.036;8.614;2022-07-06T13:21:32;22.80;1.00
3860;DHT22;1945;52.036;8.614;2022-07-06T13:24:00;22.70;78.10
3860;DHT22;1945;52.036;8.614;2022-07-06T13:26:27;22.80;99.90
3860;DHT22;1945;52.036;8.614;2022-07-06T13:28:54;23.00;99.90
3860;DHT22;1945;52.036;8.614;2022-07-06T13:31:21;22.90;99.90
3860;DHT22;1945;52.036;8.614;2022-07-06T13:33:48;22.90;99.90
3860;DHT22;1945;52.036;8.614;2022-07-06T13:36:14;22.60;99.90
3860;DHT22;1945;52.036;8.614;2022-07-06T13:38:41;22.30;99.90
3860;DHT22;1945;52.036;8.614;2022-07-06T13:41:09;22.40;99.90
3860;DHT22;1945;52.036;8.614;2022-07-06T13:43:36;22.60;99.90
3860;DHT22;1945;52.036;8.614;2022-07-06T13:46:03;22.60;1.00
3860;DHT22;1945;52.036;8.614;2022-07-06T13:48:30;22.80;1.00
3860;DHT22;1945;52.036;8.614;2022-07-06T13:50:57;22.40;99.90
3860;DHT22;1945;52.036;8.614;2022-07-06T13:53:24;22.40;99.90
3860;DHT22;1945;52.036;8.614;2022-07-06T13:55:50;22.50;1.00
3860;DHT22;1945;52.036;8.614;2022-07-06T13:58:19;22.60;99.90
3860;DHT22;1945;52.036;8.614;2022-07-06T14:00:46;22.90;99.90
3860;DHT22;1945;52.036;8.614;2022-07-06T14:03:13;23.10;99.90
3860;DHT22;1945;52.036;8.614;2022-07-06T14:05:39;22.70;99.90
3860;DHT22;1945;52.036;8.614;2022-07-06T14:08:06;22.70;99.90
3860;DHT22;1945;52.036;8.614;2022-07-06T14:10:33;22.60;99.90
3860;DHT22;1945;52.036;8.614;2022-07-06T14:13:00;22.50;99.90
3860;DHT22;1945;52.036;8.614;2022-07-06T14:15:28;22.40;99.90
3860;DHT22;1945;52.036;8.614;2022-07-06T14:17:55;22.50;99.90
3860;DHT22;1945;52.036;8.614;2022-07-06T14:20:21;22.50;99.90
3860;DHT22;1945;52.036;8.614;2022-07-06T14:22:48;22.60;99.90
3860;DHT22;1945;52.036;8.614;2022-07-06T14:25:15;22.50;99.90
3860;DHT22;1945;52.036;8.614;2022-07-06T14:27:41;22.80;99.90
3860;DHT22;1945;52.036;8.614;2022-07-06T14:30:10;22.60;99.90
3860;DHT22;1945;52.036;8.614;2022-07-06T14:32:38;22.60;99.90
3860;DHT22;1945;52.036;8.614;2022-07-06T14:35:05;22.60;99.90
3860;DHT22;1945;52.036;8.614;2022-07-06T14:37:31;22.70;99.90
3860;DHT22;1945;52.036;8.614;2022-07-06T14:39:58;22.60;99.90
3860;DHT22;1945;52.036;8.614;2022-07-06T14:42:25;22.70;99.90
3860;DHT22;1945;52.036;8.614;2022-07-06T14:44:59;22.90;99.90
3860;DHT22;1945;52.036;8.614;2022-07-06T14:47:25;23.00;99.90
3860;DHT22;1945;52.036;8.614;2022-07-06T14:49:53;22.80;99.90
3860;DHT22;1945;52.036;8.614;2022-07-06T14:52:20;22.80;99.90
3860;DHT22;1945;52.036;8.614;2022-07-06T14:54:47;22.70;99.90
3860;DHT22;1945;52.036;8.614;2022-07-06T14:57:13;22.70;1.00
3860;DHT22;1945;52.036;8.614;2022-07-06T14:59:40;22.80;1.00
3860;DHT22;1945;52.036;8.614;2022-07-06T15:02:07;23.10;1.00
3860;DHT22;1945;52.036;8.614;2022-07-06T15:04:34;23.10;1.00
3860;DHT22;1945;52.036;8.614;2022-07-06T15:07:02;23.00;1.00
3860;DHT22;1945;52.036;8.614;2022-07-06T15:09:29;22.90;1.00
3860;DHT22;1945;52.036;8.614;2022-07-06T15:11:56;22.80;1.00
3860;DHT22;1945;52.036;8.614;2022-07-06T15:14:23;22.80;1.00
3860;DHT22;1945;52.036;8.614;2022-07-06T15:16:51;22.80;1.00
3860;DHT22;1945;52.036;8.614;2022-07-06T15:19:18;22.80;1.00
3860;DHT22;1945;52.036;8.614;2022-07-06T15:21:45;22.80;1.00
3860;DHT22;1945;52.036;8.614;2022-07-06T15:24:13;22.70;1.00
3860;DHT22;1945;52.036;8.614;2022-07-06T15:26:40;22.60;1.00
3860;DHT22;1945;52.036;8.614;2022-07-06T15:29:07;22.70;1.00
3860;DHT22;1945;52.036;8.614;2022-07-06T15:31:34;23.00;1.00
3860;DHT22;1945;52.036;8.614;2022-07-06T15:34:01;23.00;1.00
3860;DHT22;1945;52.036;8.614;2022-07-06T15:36:28;22.90;1.00
3860;DHT22;1945;52.036;8.614;2022-07-06T15:38:55;22.60;1.00
3860;DHT22;1945;52.036;8.614;2022-07-06T15:41:23;22.40;99.90
3860;DHT22;1945;52.036;8.614;2022-07-06T15:43:50;22.40;99.90
3860;DHT22;1945;52.036;8.614;2022-07-06T15:46:17;22.50;99.90
3860;DHT22;1945;52.036;8.614;2022-07-06T15:48:44;22.50;1.00
3860;DHT22;1945;52.036;8.614;2022-07-06T15:51:11;22.40;99.90
3860;DHT22;1945;52.036;8.614;2022-07-06T15:53:37;22.50;99.90
3860;DHT22;1945;52.036;8.614;2022-07-06T15:56:05;22.40;1.00
3860;DHT22;1945;52.036;8.614;2022-07-06T15:58:33;22.20;99.90
3860;DHT22;1945;52.036;8.614;2022-07-06T16:01:00;22.20;1.00
3860;DHT22;1945;52.036;8.614;2022-07-06T16:03:27;22.10;99.90
3860;DHT22;1945;52.036;8.614;2022-07-06T16:05:54;22.30;99.90
3860;DHT22;1945;52.036;8.614;2022-07-06T16:08:21;22.10;99.90
3860;DHT22;1945;52.036;8.614;2022-07-06T16:10:49;22.00;99.90
3860;DHT22;1945;52.036;8.614;2022-07-06T16:13:16;22.10;99.90
3860;DHT22;1945;52.036;8.614;2022-07-06T16:15:46;22.10;99.90